createdAt,value
2019-03-28T00:01:15.304Z,7.27
2019-03-28T00:04:03.480Z,7.73
2019-03-28T00:06:51.703Z,8.23
2019-03-28T00:09:40.182Z,8.13
2019-03-28T00:12:28.002Z,6.97
2019-03-28T00:15:16.287Z,7.80
2019-03-28T00:18:04.420Z,7.90
2019-03-28T00:20:52.532Z,7.80
2019-03-28T00:23:58.113Z,8.00
2019-03-28T00:26:46.540Z,8.33
2019-03-28T00:29:34.515Z,7.70
2019-03-28T00:32:22.897Z,7.87
2019-03-28T00:35:10.640Z,7.90
2019-03-28T00:37:58.668Z,8.03
2019-03-28T00:40:47.169Z,8.17
2019-03-28T00:43:35.043Z,8.10
2019-03-28T00:46:23.058Z,8.73
2019-03-28T00:49:11.552Z,8.93
2019-03-28T00:51:59.619Z,8.37
2019-03-28T00:54:48.043Z,8.60
2019-03-28T00:57:36.178Z,8.67
2019-03-28T01:00:24.580Z,8.67
2019-03-28T01:03:12.518Z,8.97
2019-03-28T01:06:00.543Z,8.63
2019-03-28T01:08:48.646Z,8.93
2019-03-28T01:11:37.097Z,8.53
2019-03-28T01:14:25.502Z,8.33
2019-03-28T01:17:13.657Z,8.73
2019-03-28T01:20:01.524Z,8.30
2019-03-28T01:22:50.588Z,9.07
2019-03-28T01:25:38.700Z,8.07
2019-03-28T01:28:26.679Z,8.57
2019-03-28T01:31:14.953Z,8.77
2019-03-28T01:34:03.340Z,9.07
2019-03-28T01:36:51.300Z,8.50
2019-03-28T01:39:39.485Z,8.97
2019-03-28T01:42:27.542Z,8.80
2019-03-28T01:45:16.429Z,9.00
2019-03-28T01:48:04.595Z,8.93
2019-03-28T01:50:52.441Z,9.73
2019-03-28T01:53:40.781Z,9.17
2019-03-28T01:56:28.715Z,10.13
2019-03-28T01:59:16.677Z,9.77
2019-03-28T02:02:04.966Z,9.03
2019-03-28T02:04:53.391Z,10.07
2019-03-28T02:07:41.353Z,10.40
2019-03-28T02:10:29.385Z,11.10
2019-03-28T02:13:17.774Z,10.27
2019-03-28T02:16:06.018Z,10.30
2019-03-28T02:18:54.337Z,10.20
2019-03-28T02:21:42.703Z,9.80
2019-03-28T02:24:30.702Z,9.83
2019-03-28T02:27:24.399Z,10.37
2019-03-28T02:30:09.636Z,9.80
2019-03-28T02:32:57.572Z,10.37
2019-03-28T02:35:46.086Z,10.03
2019-03-28T02:38:34.464Z,9.97
2019-03-28T02:41:22.885Z,9.93
2019-03-28T02:44:11.900Z,11.27
2019-03-28T02:47:00.657Z,10.57
2019-03-28T02:49:50.810Z,10.10
2019-03-28T02:52:38.962Z,11.33
2019-03-28T02:55:26.824Z,10.47
2019-03-28T02:58:14.604Z,11.17
2019-03-28T03:01:02.891Z,10.87
2019-03-28T03:03:51.293Z,11.50
2019-03-28T03:06:39.743Z,10.63
2019-03-28T03:09:28.111Z,11.00
2019-03-28T03:12:16.274Z,11.30
2019-03-28T03:15:04.656Z,11.70
2019-03-28T03:17:53.050Z,10.40
2019-03-28T03:20:40.886Z,11.57
2019-03-28T03:23:28.872Z,11.63
2019-03-28T03:26:16.555Z,11.10
2019-03-28T03:29:04.684Z,11.80
2019-03-28T03:31:53.936Z,12.00
2019-03-28T03:34:42.087Z,11.20
2019-03-28T03:37:30.366Z,12.30
2019-03-28T03:40:19.020Z,11.43
2019-03-28T03:43:07.205Z,12.27
2019-03-28T03:45:55.126Z,12.23
2019-03-28T03:48:43.452Z,12.03
2019-03-28T03:51:31.258Z,11.73
2019-03-28T03:54:19.321Z,11.63
2019-03-28T03:57:07.843Z,12.23
2019-03-28T03:59:55.482Z,12.63
2019-03-28T04:02:43.390Z,12.97
2019-03-28T04:05:32.076Z,12.27
2019-03-28T04:08:20.101Z,12.83
2019-03-28T04:11:08.238Z,11.83
2019-03-28T04:13:56.616Z,13.37
2019-03-28T04:16:45.671Z,12.70
2019-03-28T04:19:33.555Z,14.17
2019-03-28T04:22:21.429Z,12.43
2019-03-28T04:25:09.811Z,12.70
2019-03-28T04:27:58.333Z,12.73
2019-03-28T04:30:46.753Z,14.20
2019-03-28T04:33:35.759Z,14.33
2019-03-28T04:36:23.841Z,13.63
2019-03-28T04:39:12.042Z,13.23
2019-03-28T04:42:00.070Z,14.27
2019-03-28T04:44:48.173Z,13.73
2019-03-28T04:47:36.369Z,13.43
2019-03-28T04:50:24.469Z,14.27
2019-03-28T04:53:12.542Z,13.73
2019-03-28T04:56:00.650Z,14.23
2019-03-28T04:58:49.349Z,13.87
2019-03-28T05:01:37.567Z,14.17
2019-03-28T05:04:25.569Z,12.57
2019-03-28T05:07:14.094Z,14.23
2019-03-28T05:10:02.059Z,14.37
2019-03-28T05:12:49.981Z,14.37
2019-03-28T05:15:38.011Z,14.83
2019-03-28T05:18:26.527Z,13.73
2019-03-28T05:21:14.820Z,14.50
2019-03-28T05:24:03.045Z,14.57
2019-03-28T05:26:51.206Z,13.83
2019-03-28T05:29:39.222Z,14.10
2019-03-28T05:32:27.186Z,15.17
2019-03-28T05:35:15.317Z,14.97
2019-03-28T05:38:04.184Z,14.77
2019-03-28T05:40:51.995Z,14.30
2019-03-28T05:43:39.719Z,14.17
2019-03-28T05:46:27.619Z,15.33
2019-03-28T05:49:15.376Z,14.17
2019-03-28T05:52:03.561Z,14.33
2019-03-28T05:54:51.614Z,14.00
2019-03-28T05:57:39.615Z,13.53
2019-03-28T06:00:27.878Z,14.77
2019-03-28T06:03:16.363Z,15.27
2019-03-28T06:06:04.718Z,14.40
2019-03-28T06:08:53.394Z,15.80
2019-03-28T06:11:42.058Z,16.57
2019-03-28T06:14:30.063Z,14.97
2019-03-28T06:17:18.055Z,16.30
2019-03-28T06:20:07.140Z,15.57
2019-03-28T06:22:55.092Z,15.57
2019-03-28T06:25:43.191Z,14.97
2019-03-28T06:28:30.822Z,16.40
2019-03-28T06:31:18.928Z,15.47
2019-03-28T06:34:07.312Z,15.67
2019-03-28T06:36:55.535Z,16.40
2019-03-28T06:39:43.751Z,17.90
2019-03-28T06:42:32.066Z,17.10
2019-03-28T06:45:20.025Z,16.57
2019-03-28T06:48:08.254Z,18.50
2019-03-28T06:50:56.133Z,18.13
2019-03-28T06:53:44.330Z,19.17
2019-03-28T06:56:32.593Z,17.80
2019-03-28T06:59:20.839Z,17.73
2019-03-28T07:02:09.083Z,17.80
2019-03-28T07:04:57.407Z,17.77
2019-03-28T07:07:45.311Z,17.93
2019-03-28T07:10:33.630Z,18.00
2019-03-28T07:13:21.539Z,18.40
2019-03-28T07:16:09.755Z,18.53
2019-03-28T07:18:58.068Z,18.10
2019-03-28T07:21:46.326Z,17.00
2019-03-28T07:24:34.707Z,16.53
2019-03-28T07:27:22.951Z,17.00
2019-03-28T07:30:12.550Z,16.33
2019-03-28T07:33:00.918Z,17.50
2019-03-28T07:35:49.273Z,16.47
2019-03-28T07:38:37.508Z,16.53
2019-03-28T07:41:25.753Z,15.03
2019-03-28T07:44:14.343Z,15.40
2019-03-28T07:47:01.997Z,15.87
2019-03-28T07:49:49.987Z,14.80
2019-03-28T07:52:38.375Z,16.13
2019-03-28T07:55:26.562Z,16.10
2019-03-28T07:58:14.675Z,14.83
2019-03-28T08:01:02.298Z,15.70
2019-03-28T08:03:51.608Z,15.47
2019-03-28T08:06:49.742Z,15.03
2019-03-28T08:09:36.500Z,14.20
2019-03-28T08:12:23.059Z,14.70
2019-03-28T08:15:10.254Z,15.20
2019-03-28T08:17:58.530Z,14.47
2019-03-28T08:20:46.414Z,14.23
2019-03-28T08:23:35.458Z,14.73
2019-03-28T08:26:24.206Z,15.03
2019-03-28T08:29:12.479Z,13.83
2019-03-28T08:32:01.312Z,14.40
2019-03-28T08:34:50.943Z,14.83
2019-03-28T08:37:40.660Z,13.97
2019-03-28T08:40:39.767Z,14.57
2019-03-28T08:43:26.772Z,13.47
2019-03-28T08:46:15.150Z,13.03
2019-03-28T08:49:03.722Z,13.00
2019-03-28T08:51:52.308Z,13.37
2019-03-28T08:54:40.321Z,13.50
2019-03-28T08:57:28.310Z,12.50
2019-03-28T09:00:17.334Z,12.57
2019-03-28T09:03:05.719Z,11.20
2019-03-28T09:05:53.759Z,11.83
2019-03-28T09:08:42.259Z,11.10
2019-03-28T09:11:30.779Z,11.37
2019-03-28T09:14:19.048Z,11.40
2019-03-28T09:17:06.728Z,11.33
2019-03-28T09:19:54.676Z,10.90
2019-03-28T09:22:42.580Z,10.63
2019-03-28T09:25:30.219Z,11.50
2019-03-28T09:28:17.778Z,10.13
2019-03-28T09:31:18.937Z,9.17
2019-03-28T09:33:55.822Z,9.00
2019-03-28T09:36:44.317Z,9.43
2019-03-28T09:39:32.660Z,9.13
2019-03-28T09:42:21.213Z,7.90
2019-03-28T09:45:09.633Z,7.93
2019-03-28T09:47:57.693Z,8.13
2019-03-28T09:50:45.608Z,7.57
2019-03-28T09:53:33.640Z,8.30
2019-03-28T09:56:21.721Z,7.33
2019-03-28T09:59:09.933Z,7.30
2019-03-28T10:01:57.971Z,7.83
2019-03-28T10:04:46.524Z,7.83
2019-03-28T10:07:34.490Z,7.23
2019-03-28T10:10:22.882Z,6.63
2019-03-28T10:13:10.846Z,6.33
2019-03-28T10:15:59.294Z,6.47
2019-03-28T10:18:47.535Z,6.80
2019-03-28T10:21:37.658Z,6.23
2019-03-28T10:24:25.524Z,5.73
2019-03-28T10:27:13.612Z,4.93
2019-03-28T10:30:02.637Z,5.10
2019-03-28T10:32:50.302Z,5.43
2019-03-28T10:35:38.484Z,5.27
2019-03-28T10:38:26.677Z,5.47
2019-03-28T10:41:14.990Z,5.50
2019-03-28T10:44:03.372Z,6.00
2019-03-28T10:46:51.595Z,6.17
2019-03-28T10:49:39.715Z,5.23
2019-03-28T10:52:27.566Z,6.17
2019-03-28T10:55:16.598Z,5.80
2019-03-28T10:58:17.657Z,6.00
2019-03-28T11:00:55.828Z,5.47
2019-03-28T11:03:44.430Z,5.17
2019-03-28T11:06:32.705Z,4.80
2019-03-28T11:09:20.834Z,5.53
2019-03-28T11:12:09.102Z,5.60
2019-03-28T11:14:56.864Z,5.83
2019-03-28T11:17:44.852Z,5.40
2019-03-28T11:20:33.254Z,5.00
2019-03-28T11:23:21.211Z,4.23
2019-03-28T11:26:09.381Z,3.80
2019-03-28T11:29:00.819Z,4.40
2019-03-28T11:31:51.929Z,3.87
2019-03-28T11:34:37.681Z,4.50
2019-03-28T11:37:26.844Z,3.77
2019-03-28T11:40:17.204Z,3.90
2019-03-28T11:43:05.380Z,3.77
2019-03-28T11:45:53.773Z,3.47
2019-03-28T11:48:41.610Z,3.70
2019-03-28T11:51:30.560Z,3.17
2019-03-28T11:54:18.692Z,3.13
2019-03-28T11:57:07.058Z,3.63
2019-03-28T11:59:57.981Z,3.17
2019-03-28T12:02:45.094Z,3.47
2019-03-28T12:05:33.065Z,3.40
2019-03-28T12:08:21.106Z,2.83
2019-03-28T12:11:09.505Z,2.80
2019-03-28T12:13:59.674Z,3.00
2019-03-28T12:16:49.781Z,2.53
2019-03-28T12:19:37.893Z,2.77
2019-03-28T12:22:25.861Z,2.57
2019-03-28T12:25:14.350Z,2.40
2019-03-28T12:28:02.595Z,2.60
2019-03-28T12:30:51.887Z,2.30
2019-03-28T12:33:39.715Z,1.93
2019-03-28T12:36:27.545Z,2.37
2019-03-28T12:39:16.011Z,2.23
2019-03-28T12:42:04.157Z,2.10
2019-03-28T12:44:57.368Z,2.10
2019-03-28T12:47:43.411Z,2.00
2019-03-28T12:50:30.958Z,1.90
2019-03-28T12:53:19.150Z,1.93
2019-03-28T12:56:07.077Z,2.10
2019-03-28T12:58:55.352Z,1.77
2019-03-28T13:01:43.875Z,2.07
2019-03-28T13:04:31.896Z,1.77
2019-03-28T13:07:20.570Z,1.87
2019-03-28T13:10:09.224Z,1.90
2019-03-28T13:12:58.996Z,1.67
2019-03-28T13:15:47.254Z,1.77
2019-03-28T13:18:36.157Z,2.03
2019-03-28T13:21:24.270Z,1.67
2019-03-28T13:24:11.886Z,1.80
2019-03-28T13:27:00.266Z,1.77
2019-03-28T13:29:49.185Z,1.60
2019-03-28T13:32:42.133Z,1.70
2019-03-28T13:35:26.826Z,1.47
2019-03-28T13:38:15.185Z,1.70
2019-03-28T13:41:03.407Z,1.93
2019-03-28T13:43:51.892Z,1.80
2019-03-28T13:46:40.169Z,2.00
2019-03-28T13:49:28.225Z,1.70
2019-03-28T13:52:16.522Z,1.63
2019-03-28T13:55:04.763Z,1.73
2019-03-28T13:57:53.381Z,2.10
2019-03-28T14:00:41.585Z,1.90
2019-03-28T14:03:29.571Z,2.60
2019-03-28T14:06:17.841Z,2.33
2019-03-28T14:09:07.343Z,2.17
2019-03-28T14:11:54.898Z,2.50
2019-03-28T14:14:42.756Z,2.50
2019-03-28T14:17:30.864Z,2.33
2019-03-28T14:20:22.228Z,2.77
2019-03-28T14:23:08.662Z,2.57
2019-03-28T14:25:56.359Z,2.90
2019-03-28T14:28:44.175Z,3.27
2019-03-28T14:31:32.183Z,3.30
2019-03-28T14:34:20.221Z,3.03
2019-03-28T14:37:07.852Z,2.87
2019-03-28T14:39:56.087Z,3.53
2019-03-28T14:42:44.587Z,3.20
2019-03-28T14:45:32.939Z,3.00
2019-03-28T14:48:21.485Z,3.23
2019-03-28T14:51:09.265Z,3.07
2019-03-28T14:53:57.626Z,3.20
2019-03-28T14:56:45.939Z,3.27
2019-03-28T14:59:34.669Z,3.40
2019-03-28T15:02:22.852Z,3.40
2019-03-28T15:05:10.637Z,3.30
2019-03-28T15:07:58.747Z,3.07
2019-03-28T15:10:46.716Z,3.10
2019-03-28T15:13:34.589Z,2.63
2019-03-28T15:16:22.774Z,2.97
2019-03-28T15:19:11.018Z,2.93
2019-03-28T15:21:59.432Z,3.30
2019-03-28T15:24:47.883Z,2.97
2019-03-28T15:27:36.201Z,2.77
2019-03-28T15:30:24.189Z,3.07
2019-03-28T15:33:12.679Z,2.27
2019-03-28T15:36:00.750Z,3.13
2019-03-28T15:38:51.072Z,2.77
2019-03-28T15:41:39.008Z,2.77
2019-03-28T15:44:26.993Z,2.47
2019-03-28T15:47:15.040Z,2.67
2019-03-28T15:50:03.682Z,2.73
2019-03-28T15:52:54.167Z,2.00
2019-03-28T15:55:42.650Z,2.90
2019-03-28T15:58:30.778Z,2.63
2019-03-28T16:01:18.410Z,2.40
2019-03-28T16:04:06.479Z,2.77
2019-03-28T16:06:54.489Z,2.20
2019-03-28T16:09:42.630Z,2.40
2019-03-28T16:12:30.635Z,2.70
2019-03-28T16:15:18.770Z,2.53
2019-03-28T16:18:06.504Z,2.40
2019-03-28T16:20:54.715Z,3.03
2019-03-28T16:23:42.416Z,2.50
2019-03-28T16:26:30.772Z,2.30
2019-03-28T16:29:19.317Z,2.40
2019-03-28T16:32:07.596Z,2.60
2019-03-28T16:34:55.856Z,2.33
2019-03-28T16:37:43.698Z,2.33
2019-03-28T16:40:31.766Z,2.03
2019-03-28T16:43:20.012Z,2.60
2019-03-28T16:46:08.477Z,2.20
2019-03-28T16:48:56.382Z,2.10
2019-03-28T16:51:44.132Z,2.30
2019-03-28T16:54:31.950Z,2.40
2019-03-28T16:57:20.296Z,2.60
2019-03-28T17:00:11.186Z,2.30
2019-03-28T17:02:59.175Z,2.43
2019-03-28T17:05:47.302Z,2.40
2019-03-28T17:08:35.490Z,2.87
2019-03-28T17:11:23.967Z,3.10
2019-03-28T17:14:11.930Z,2.93
2019-03-28T17:16:59.895Z,3.30
2019-03-28T17:19:48.414Z,3.10
2019-03-28T17:22:37.182Z,3.30
2019-03-28T17:25:25.483Z,3.07
2019-03-28T17:28:13.610Z,3.17
2019-03-28T17:31:02.209Z,3.33
2019-03-28T17:33:50.500Z,3.37
2019-03-28T17:36:38.953Z,3.10
2019-03-28T17:39:27.106Z,3.77
2019-03-28T17:42:15.044Z,3.27
2019-03-28T17:45:03.045Z,2.80
2019-03-28T17:47:51.134Z,3.50
2019-03-28T17:50:39.174Z,4.13
2019-03-28T17:53:27.526Z,4.50
2019-03-28T17:56:15.967Z,4.20
2019-03-28T17:59:04.419Z,4.50
2019-03-28T18:01:52.643Z,5.03
2019-03-28T18:04:47.848Z,4.80
2019-03-28T18:07:30.628Z,4.77
2019-03-28T18:10:19.037Z,4.73
2019-03-28T18:13:07.539Z,4.43
2019-03-28T18:15:55.758Z,4.87
2019-03-28T18:18:43.696Z,4.47
2019-03-28T18:21:31.954Z,4.53
2019-03-28T18:24:20.187Z,4.70
2019-03-28T18:27:08.946Z,4.30
2019-03-28T18:29:57.064Z,4.33
2019-03-28T18:32:45.334Z,4.70
2019-03-28T18:35:33.021Z,5.10
2019-03-28T18:38:21.099Z,5.10
2019-03-28T18:41:09.150Z,4.83
2019-03-28T18:43:57.076Z,5.00
2019-03-28T18:46:44.853Z,5.40
2019-03-28T18:49:33.018Z,4.47
2019-03-28T18:52:20.625Z,5.03
2019-03-28T18:55:09.580Z,5.10
2019-03-28T18:57:57.595Z,4.87
2019-03-28T19:00:48.057Z,5.30
2019-03-28T19:03:34.941Z,5.73
2019-03-28T19:06:22.683Z,5.27
2019-03-28T19:09:10.855Z,5.30
2019-03-28T19:11:59.155Z,6.80
2019-03-28T19:14:47.045Z,5.57
2019-03-28T19:17:35.254Z,5.27
2019-03-28T19:20:23.660Z,5.63
2019-03-28T19:23:11.714Z,5.60
2019-03-28T19:26:00.812Z,5.60
2019-03-28T19:28:48.619Z,5.43
2019-03-28T19:31:36.474Z,5.57
2019-03-28T19:37:26.701Z,6.17
2019-03-28T19:40:15.440Z,5.80
2019-03-28T19:43:03.442Z,5.73
2019-03-28T19:45:52.116Z,5.70
2019-03-28T19:48:41.887Z,5.50
2019-03-28T19:51:30.051Z,6.20
2019-03-28T19:54:17.766Z,6.20
2019-03-28T19:57:08.507Z,6.70
2019-03-28T19:59:58.627Z,6.07
2019-03-28T20:02:49.046Z,6.13
2019-03-28T20:05:47.347Z,6.60
2019-03-28T20:08:27.622Z,6.33
2019-03-28T20:11:15.320Z,6.03
2019-03-28T20:14:03.362Z,6.37
2019-03-28T20:16:51.876Z,6.00
2019-03-28T20:19:40.528Z,6.07
2019-03-28T20:22:28.808Z,6.40
2019-03-28T20:25:16.841Z,5.97
2019-03-28T20:28:04.971Z,5.93
2019-03-28T20:30:53.937Z,5.93
2019-03-28T20:33:42.325Z,6.47
2019-03-28T20:36:37.678Z,5.97
2019-03-28T20:39:20.020Z,6.93
2019-03-28T20:42:08.946Z,6.17
2019-03-28T20:44:57.207Z,6.00
2019-03-28T20:47:44.927Z,6.50
2019-03-28T20:50:33.383Z,6.63
2019-03-28T20:53:21.508Z,6.33
2019-03-28T20:56:09.655Z,6.83
2019-03-28T20:58:57.525Z,6.83
2019-03-28T21:01:46.092Z,7.10
2019-03-28T21:04:34.697Z,6.70
2019-03-28T21:07:23.021Z,5.70
2019-03-28T21:10:25.096Z,6.07
2019-03-28T21:13:13.051Z,6.93
2019-03-28T21:16:01.423Z,6.67
2019-03-28T21:18:49.965Z,7.30
2019-03-28T21:21:38.249Z,6.93
2019-03-28T21:24:26.343Z,7.00
2019-03-28T21:27:14.522Z,7.07
2019-03-28T21:30:03.442Z,7.30
2019-03-28T21:32:55.621Z,7.77
2019-03-28T21:35:41.136Z,7.47
2019-03-28T21:38:30.365Z,7.40
2019-03-28T21:41:18.315Z,7.43
2019-03-28T21:44:06.379Z,7.53
2019-03-28T21:46:54.474Z,7.47
2019-03-28T21:49:43.151Z,7.60
2019-03-28T21:52:31.459Z,7.43
2019-03-28T21:55:19.501Z,7.40
2019-03-28T21:58:07.693Z,8.13
2019-03-28T22:00:55.575Z,7.30
2019-03-28T22:03:43.448Z,7.57
2019-03-28T22:06:42.455Z,8.00
2019-03-28T22:09:21.166Z,8.07
2019-03-28T22:12:09.283Z,7.80
2019-03-28T22:14:57.589Z,7.90
2019-03-28T22:17:45.988Z,8.30
2019-03-28T22:20:33.986Z,8.40
2019-03-28T22:23:22.100Z,8.13
2019-03-28T22:26:10.734Z,8.60
2019-03-28T22:28:59.222Z,8.83
2019-03-28T22:31:47.113Z,8.83
2019-03-28T22:34:34.954Z,8.77
2019-03-28T22:37:22.858Z,8.73
2019-03-28T22:40:12.065Z,8.13
2019-03-28T22:43:00.126Z,8.97
2019-03-28T22:45:48.612Z,9.30
2019-03-28T22:48:36.829Z,8.67
2019-03-28T22:51:24.784Z,9.03
2019-03-28T22:54:12.790Z,9.20
2019-03-28T22:57:00.655Z,9.13
2019-03-28T22:59:48.783Z,9.17
2019-03-28T23:02:37.241Z,9.40
2019-03-28T23:05:25.552Z,9.90
2019-03-28T23:08:13.950Z,9.87
2019-03-28T23:11:02.065Z,9.67
2019-03-28T23:13:50.769Z,9.10
2019-03-28T23:16:38.277Z,9.20
2019-03-28T23:19:26.370Z,10.10
2019-03-28T23:22:14.439Z,9.70
2019-03-28T23:25:02.802Z,10.07
2019-03-28T23:27:51.043Z,9.77
2019-03-28T23:30:39.051Z,9.73
2019-03-28T23:33:27.074Z,9.80
2019-03-28T23:36:15.146Z,9.70
2019-03-28T23:39:04.272Z,8.93
2019-03-28T23:41:52.648Z,9.93
2019-03-28T23:44:40.519Z,10.53
2019-03-28T23:47:29.986Z,10.13
2019-03-28T23:50:18.460Z,10.23
2019-03-28T23:53:06.453Z,10.03
2019-03-28T23:55:54.484Z,9.23
2019-03-28T23:58:42.423Z,10.57
